createdAt,value
2018-12-24T00:00:00.264Z,1011.00
2018-12-24T00:01:00.134Z,1011.00
2018-12-24T00:02:00.115Z,1011.07
2018-12-24T00:03:00.089Z,1011.09
2018-12-24T00:04:00.057Z,1011.12
2018-12-24T00:05:00.250Z,1011.12
2018-12-24T00:06:00.043Z,1011.12
2018-12-24T00:07:00.039Z,1011.16
2018-12-24T00:08:00.033Z,1011.17
2018-12-24T00:09:00.032Z,1011.17
2018-12-24T00:10:00.004Z,1011.20
2018-12-24T00:10:59.983Z,1011.21
2018-12-24T00:12:07.038Z,1011.25
2018-12-24T00:13:01.009Z,1011.32
2018-12-24T00:13:59.949Z,1011.37
2018-12-24T00:14:59.953Z,1011.38
2018-12-24T00:15:59.937Z,1011.39
2018-12-24T00:16:59.909Z,1011.48
2018-12-24T00:17:59.910Z,1011.46
2018-12-24T00:18:59.929Z,1011.52
2018-12-24T00:19:59.907Z,1011.50
2018-12-24T00:20:59.881Z,1011.47
2018-12-24T00:21:59.864Z,1011.49
2018-12-24T00:22:59.847Z,1011.55
2018-12-24T00:23:59.879Z,1011.55
2018-12-24T00:24:59.851Z,1011.60
2018-12-24T00:25:59.862Z,1011.60
2018-12-24T00:26:59.815Z,1011.64
2018-12-24T00:27:59.804Z,1011.63
2018-12-24T00:28:59.787Z,1011.67
2018-12-24T00:29:59.810Z,1011.71
2018-12-24T00:30:59.779Z,1011.72
2018-12-24T00:31:59.776Z,1011.72
2018-12-24T00:32:59.729Z,1011.73
2018-12-24T00:33:59.732Z,1011.77
2018-12-24T00:34:59.739Z,1011.78
2018-12-24T00:35:59.729Z,1011.81
2018-12-24T00:36:59.715Z,1011.83
2018-12-24T00:37:59.697Z,1011.87
2018-12-24T00:38:59.685Z,1011.92
2018-12-24T00:39:59.658Z,1011.88
2018-12-24T00:40:59.696Z,1011.90
2018-12-24T00:41:59.658Z,1011.94
2018-12-24T00:42:59.631Z,1011.97
2018-12-24T00:43:59.633Z,1012.03
2018-12-24T00:44:59.638Z,1012.01
2018-12-24T00:45:59.598Z,1012.04
2018-12-24T00:46:59.613Z,1012.08
2018-12-24T00:47:59.577Z,1012.09
2018-12-24T00:48:59.627Z,1012.09
2018-12-24T00:49:59.579Z,1012.11
2018-12-24T00:50:59.551Z,1012.12
2018-12-24T00:51:59.552Z,1012.15
2018-12-24T00:52:59.561Z,1012.18
2018-12-24T00:53:59.522Z,1012.17
2018-12-24T00:54:59.485Z,1012.24
2018-12-24T00:55:59.507Z,1012.26
2018-12-24T00:56:59.483Z,1012.26
2018-12-24T00:57:59.451Z,1012.29
2018-12-24T00:58:59.464Z,1012.28
2018-12-24T00:59:59.462Z,1012.33
2018-12-24T01:00:59.438Z,1012.33
2018-12-24T01:01:59.411Z,1012.33
2018-12-24T01:02:59.401Z,1012.39
2018-12-24T01:03:59.422Z,1012.42
2018-12-24T01:04:59.402Z,1012.45
2018-12-24T01:05:59.373Z,1012.44
2018-12-24T01:06:59.378Z,1012.48
2018-12-24T01:07:59.353Z,1012.49
2018-12-24T01:08:59.347Z,1012.50
2018-12-24T01:09:59.332Z,1012.51
2018-12-24T01:10:59.343Z,1012.53
2018-12-24T01:11:59.300Z,1012.58
2018-12-24T01:12:59.337Z,1012.58
2018-12-24T01:13:59.290Z,1012.61
2018-12-24T01:14:59.305Z,1012.58
2018-12-24T01:15:59.269Z,1012.62
2018-12-24T01:16:59.245Z,1012.63
2018-12-24T01:17:59.260Z,1012.65
2018-12-24T01:18:59.237Z,1012.69
2018-12-24T01:19:59.230Z,1012.70
2018-12-24T01:20:59.233Z,1012.71
2018-12-24T01:21:59.185Z,1012.76
2018-12-24T01:22:59.177Z,1012.77
2018-12-24T01:23:59.183Z,1012.76
2018-12-24T01:24:59.163Z,1012.84
2018-12-24T01:25:59.200Z,1012.88
2018-12-24T01:26:59.155Z,1012.88
2018-12-24T01:27:59.150Z,1012.91
2018-12-24T01:28:59.135Z,1012.96
2018-12-24T01:29:59.121Z,1012.98
2018-12-24T01:30:59.108Z,1013.02
2018-12-24T01:31:59.099Z,1012.99
2018-12-24T01:32:59.072Z,1013.03
2018-12-24T01:33:59.073Z,1013.07
2018-12-24T01:34:59.054Z,1013.08
2018-12-24T01:35:59.036Z,1013.11
2018-12-24T01:37:00.642Z,1013.13
2018-12-24T01:37:59.014Z,1013.13
2018-12-24T01:38:58.993Z,1013.15
2018-12-24T01:39:59.040Z,1013.23
2018-12-24T01:40:58.985Z,1013.22
2018-12-24T01:41:58.969Z,1013.23
2018-12-24T01:42:58.974Z,1013.30
2018-12-24T01:43:58.972Z,1013.30
2018-12-24T01:44:58.935Z,1013.38
2018-12-24T01:45:58.925Z,1013.39
2018-12-24T01:46:58.928Z,1013.34
2018-12-24T01:47:58.894Z,1013.44
2018-12-24T01:48:58.895Z,1013.38
2018-12-24T01:49:58.882Z,1013.42
2018-12-24T01:50:58.868Z,1013.48
2018-12-24T01:51:58.911Z,1013.52
2018-12-24T01:52:58.844Z,1013.49
2018-12-24T01:53:58.841Z,1013.52
2018-12-24T01:54:58.827Z,1013.58
2018-12-24T01:55:58.800Z,1013.58
2018-12-24T01:56:58.794Z,1013.59
2018-12-24T01:57:58.817Z,1013.56
2018-12-24T01:58:58.793Z,1013.59
2018-12-24T01:59:58.768Z,1013.60
2018-12-24T02:00:58.757Z,1013.67
2018-12-24T02:01:58.737Z,1013.68
2018-12-24T02:02:58.743Z,1013.64
2018-12-24T02:03:58.741Z,1013.63
2018-12-24T02:04:58.719Z,1013.59
2018-12-24T02:05:58.742Z,1013.60
2018-12-24T02:06:58.738Z,1013.61
2018-12-24T02:07:58.697Z,1013.65
2018-12-24T02:08:58.681Z,1013.73
2018-12-24T02:09:58.658Z,1013.68
2018-12-24T02:10:58.647Z,1013.72
2018-12-24T02:11:58.646Z,1013.72
2018-12-24T02:12:58.629Z,1013.69
2018-12-24T02:13:58.618Z,1013.70
2018-12-24T02:15:06.154Z,1013.70
2018-12-24T02:15:58.591Z,1013.73
2018-12-24T02:16:58.590Z,1013.76
2018-12-24T02:17:58.575Z,1013.78
2018-12-24T02:18:58.546Z,1013.85
2018-12-24T02:19:58.528Z,1013.89
2018-12-24T02:20:58.575Z,1013.87
2018-12-24T02:21:58.530Z,1013.89
2018-12-24T02:22:58.513Z,1013.90
2018-12-24T02:23:58.482Z,1013.96
2018-12-24T02:24:58.499Z,1014.01
2018-12-24T02:25:58.486Z,1014.09
2018-12-24T02:26:58.449Z,1014.05
2018-12-24T02:27:58.439Z,1014.07
2018-12-24T02:28:58.430Z,1014.11
2018-12-24T02:29:58.415Z,1014.09
2018-12-24T02:30:58.425Z,1014.11
2018-12-24T02:31:58.406Z,1014.14
2018-12-24T02:32:58.388Z,1014.23
2018-12-24T02:33:58.376Z,1014.16
2018-12-24T02:34:58.389Z,1014.19
2018-12-24T02:35:58.349Z,1014.23
2018-12-24T02:36:58.338Z,1014.26
2018-12-24T02:37:58.329Z,1014.25
2018-12-24T02:38:58.322Z,1014.31
2018-12-24T02:39:58.308Z,1014.28
2018-12-24T02:40:58.319Z,1014.24
2018-12-24T02:41:58.313Z,1014.22
2018-12-24T02:42:58.269Z,1014.26
2018-12-24T02:43:58.266Z,1014.28
2018-12-24T02:44:58.259Z,1014.28
2018-12-24T02:45:58.250Z,1014.29
2018-12-24T02:46:58.244Z,1014.29
2018-12-24T02:47:58.218Z,1014.31
2018-12-24T02:48:58.203Z,1014.35
2018-12-24T02:49:58.195Z,1014.35
2018-12-24T02:50:58.186Z,1014.36
2018-12-24T02:51:58.174Z,1014.37
2018-12-24T02:52:58.186Z,1014.41
2018-12-24T02:53:58.149Z,1014.42
2018-12-24T02:54:58.136Z,1014.54
2018-12-24T02:55:58.127Z,1014.48
2018-12-24T02:56:58.114Z,1014.51
2018-12-24T02:57:58.127Z,1014.51
2018-12-24T02:58:58.130Z,1014.54
2018-12-24T02:59:58.081Z,1014.58
2018-12-24T03:00:58.075Z,1014.62
2018-12-24T03:01:58.056Z,1014.72
2018-12-24T03:02:58.079Z,1014.70
2018-12-24T03:03:58.056Z,1014.73
2018-12-24T03:04:58.034Z,1014.69
2018-12-24T03:05:58.015Z,1014.74
2018-12-24T03:06:58.003Z,1014.74
2018-12-24T03:07:57.991Z,1014.81
2018-12-24T03:08:57.979Z,1014.79
2018-12-24T03:09:57.982Z,1014.78
2018-12-24T03:10:57.977Z,1014.81
2018-12-24T03:11:57.957Z,1014.83
2018-12-24T03:13:02.876Z,1014.83
2018-12-24T03:13:58.928Z,1014.86
2018-12-24T03:14:57.927Z,1014.89
2018-12-24T03:15:57.902Z,1014.89
2018-12-24T03:16:57.893Z,1014.91
2018-12-24T03:17:57.884Z,1014.88
2018-12-24T03:18:57.867Z,1014.89
2018-12-24T03:19:57.857Z,1014.87
2018-12-24T03:20:57.860Z,1014.87
2018-12-24T03:21:57.836Z,1014.89
2018-12-24T03:22:57.861Z,1014.91
2018-12-24T03:23:57.812Z,1014.97
2018-12-24T03:24:57.803Z,1014.98
2018-12-24T03:25:57.792Z,1015.01
2018-12-24T03:26:57.806Z,1015.02
2018-12-24T03:27:57.767Z,1015.03
2018-12-24T03:28:57.760Z,1015.07
2018-12-24T03:29:57.751Z,1015.08
2018-12-24T03:30:57.740Z,1015.11
2018-12-24T03:31:57.744Z,1015.14
2018-12-24T03:32:57.742Z,1015.10
2018-12-24T03:33:57.700Z,1015.09
2018-12-24T03:34:57.689Z,1015.11
2018-12-24T03:35:57.699Z,1015.17
2018-12-24T03:36:57.674Z,1015.16
2018-12-24T03:37:57.666Z,1015.23
2018-12-24T03:38:57.669Z,1015.29
2018-12-24T03:39:57.632Z,1015.31
2018-12-24T03:40:57.654Z,1015.30
2018-12-24T03:41:57.628Z,1015.28
2018-12-24T03:42:57.602Z,1015.33
2018-12-24T03:43:57.594Z,1015.33
2018-12-24T03:44:57.591Z,1015.37
2018-12-24T03:45:57.592Z,1015.37
2018-12-24T03:46:57.551Z,1015.40
2018-12-24T03:47:57.543Z,1015.44
2018-12-24T03:48:57.538Z,1015.45
2018-12-24T03:49:57.521Z,1015.52
2018-12-24T03:50:57.528Z,1015.51
2018-12-24T03:51:57.497Z,1015.53
2018-12-24T03:52:57.486Z,1015.54
2018-12-24T03:53:57.476Z,1015.57
2018-12-24T03:54:57.469Z,1015.61
2018-12-24T03:55:57.454Z,1015.61
2018-12-24T03:56:57.468Z,1015.61
2018-12-24T03:57:57.451Z,1015.73
2018-12-24T03:58:57.417Z,1015.75
2018-12-24T03:59:57.448Z,1015.79
2018-12-24T04:00:57.398Z,1015.78
2018-12-24T04:01:57.391Z,1015.83
2018-12-24T04:02:57.375Z,1015.86
2018-12-24T04:03:57.368Z,1015.87
2018-12-24T04:04:57.351Z,1015.91
2018-12-24T04:05:57.352Z,1015.95
2018-12-24T04:06:57.348Z,1015.96
2018-12-24T04:07:57.318Z,1015.99
2018-12-24T04:08:57.331Z,1016.05
2018-12-24T04:09:57.319Z,1016.09
2018-12-24T04:10:57.282Z,1016.13
2018-12-24T04:11:57.300Z,1016.15
2018-12-24T04:12:57.277Z,1016.17
2018-12-24T04:13:57.272Z,1016.23
2018-12-24T04:14:57.242Z,1016.21
2018-12-24T04:15:57.232Z,1016.26
2018-12-24T04:16:57.220Z,1016.29
2018-12-24T04:17:57.216Z,1016.31
2018-12-24T04:18:57.194Z,1016.30
2018-12-24T04:19:57.235Z,1016.35
2018-12-24T04:20:57.175Z,1016.33
2018-12-24T04:21:57.160Z,1016.36
2018-12-24T04:22:57.164Z,1016.40
2018-12-24T04:23:57.143Z,1016.42
2018-12-24T04:24:57.145Z,1016.44
2018-12-24T04:25:57.123Z,1016.50
2018-12-24T04:26:57.111Z,1016.48
2018-12-24T04:27:57.098Z,1016.52
2018-12-24T04:28:57.083Z,1016.56
2018-12-24T04:29:57.071Z,1016.55
2018-12-24T04:30:57.076Z,1016.54
2018-12-24T04:31:57.093Z,1016.58
2018-12-24T04:32:57.037Z,1016.52
2018-12-24T04:33:57.032Z,1016.57
2018-12-24T04:34:57.028Z,1016.58
2018-12-24T04:35:57.023Z,1016.63
2018-12-24T04:36:56.993Z,1016.64
2018-12-24T04:37:56.988Z,1016.68
2018-12-24T04:38:56.969Z,1016.68
2018-12-24T04:39:56.964Z,1016.72
2018-12-24T04:40:56.973Z,1016.75
2018-12-24T04:41:56.937Z,1016.78
2018-12-24T04:42:56.926Z,1016.86
2018-12-24T04:43:59.040Z,1016.82
2018-12-24T04:44:56.907Z,1016.84
2018-12-24T04:45:56.904Z,1016.86
2018-12-24T04:46:56.895Z,1016.87
2018-12-24T04:47:56.869Z,1016.85
2018-12-24T04:48:56.879Z,1016.94
2018-12-24T04:49:56.852Z,1016.90
2018-12-24T04:50:56.839Z,1016.91
2018-12-24T04:51:56.842Z,1016.96
2018-12-24T04:52:56.812Z,1016.97
2018-12-24T04:53:56.805Z,1017.00
2018-12-24T04:54:56.811Z,1017.06
2018-12-24T04:55:56.873Z,1017.05
2018-12-24T04:56:56.767Z,1017.06
2018-12-24T04:57:56.783Z,1017.11
2018-12-24T04:58:56.745Z,1017.13
2018-12-24T04:59:56.736Z,1017.13
2018-12-24T05:00:56.726Z,1017.12
2018-12-24T05:01:56.720Z,1017.12
2018-12-24T05:02:56.707Z,1017.13
2018-12-24T05:03:56.705Z,1017.10
2018-12-24T05:04:56.711Z,1017.10
2018-12-24T05:05:56.670Z,1017.15
2018-12-24T05:06:56.654Z,1017.16
2018-12-24T05:07:56.647Z,1017.20
2018-12-24T05:08:56.631Z,1017.24
2018-12-24T05:09:56.646Z,1017.26
2018-12-24T05:10:56.622Z,1017.29
2018-12-24T05:11:56.600Z,1017.37
2018-12-24T05:12:56.597Z,1017.40
2018-12-24T05:13:56.577Z,1017.47
2018-12-24T05:14:56.583Z,1017.46
2018-12-24T05:15:56.579Z,1017.48
2018-12-24T05:16:56.561Z,1017.55
2018-12-24T05:17:56.532Z,1017.59
2018-12-24T05:18:56.518Z,1017.61
2018-12-24T05:19:56.512Z,1017.70
2018-12-24T05:20:56.512Z,1017.72
2018-12-24T05:21:56.486Z,1017.84
2018-12-24T05:22:56.506Z,1017.81
2018-12-24T05:23:56.473Z,1017.87
2018-12-24T05:24:56.453Z,1017.85
2018-12-24T05:25:56.444Z,1017.89
2018-12-24T05:26:56.444Z,1017.91
2018-12-24T05:27:56.434Z,1017.99
2018-12-24T05:28:56.410Z,1017.96
2018-12-24T05:29:56.397Z,1018.00
2018-12-24T05:30:56.389Z,1018.03
2018-12-24T05:31:56.377Z,1018.05
2018-12-24T05:32:56.364Z,1018.08
2018-12-24T05:33:56.371Z,1018.15
2018-12-24T05:34:56.364Z,1018.11
2018-12-24T05:35:56.330Z,1018.18
2018-12-24T05:36:56.322Z,1018.19
2018-12-24T05:37:56.314Z,1018.20
2018-12-24T05:38:56.298Z,1018.15
2018-12-24T05:39:56.299Z,1018.21
2018-12-24T05:40:56.278Z,1018.18
2018-12-24T05:41:56.264Z,1018.21
2018-12-24T05:42:56.251Z,1018.20
2018-12-24T05:43:56.243Z,1018.21
2018-12-24T05:44:56.235Z,1018.27
2018-12-24T05:45:56.233Z,1018.32
2018-12-24T05:46:56.208Z,1018.36
2018-12-24T05:47:56.201Z,1018.39
2018-12-24T05:48:56.199Z,1018.44
2018-12-24T05:49:56.170Z,1018.44
2018-12-24T05:50:56.180Z,1018.52
2018-12-24T05:51:56.148Z,1018.56
2018-12-24T05:52:56.145Z,1018.62
2018-12-24T05:53:56.127Z,1018.66
2018-12-24T05:54:56.118Z,1018.67
2018-12-24T05:55:56.104Z,1018.77
2018-12-24T05:56:56.105Z,1018.92
2018-12-24T05:57:56.086Z,1018.92
2018-12-24T05:58:56.081Z,1018.99
2018-12-24T05:59:56.080Z,1018.99
2018-12-24T06:00:56.079Z,1019.06
2018-12-24T06:01:56.052Z,1019.11
2018-12-24T06:02:56.042Z,1019.22
2018-12-24T06:03:56.016Z,1019.23
2018-12-24T06:04:56.010Z,1019.24
2018-12-24T06:05:55.991Z,1019.33
2018-12-24T06:06:55.998Z,1019.39
2018-12-24T06:07:56.007Z,1019.42
2018-12-24T06:08:55.962Z,1019.51
2018-12-24T06:09:55.951Z,1019.58
2018-12-24T06:10:55.942Z,1019.66
2018-12-24T06:11:56.245Z,1019.72
2018-12-24T06:12:55.915Z,1019.77
2018-12-24T06:13:58.074Z,1019.79
2018-12-24T06:14:55.919Z,1019.90
2018-12-24T06:15:55.884Z,1019.88
2018-12-24T06:16:55.899Z,1019.92
2018-12-24T06:17:57.682Z,1019.99
2018-12-24T06:18:55.850Z,1020.01
2018-12-24T06:19:55.866Z,1019.99
2018-12-24T06:20:55.833Z,1020.00
2018-12-24T06:21:55.814Z,1019.99
2018-12-24T06:22:55.821Z,1019.99
2018-12-24T06:23:55.803Z,1019.93
2018-12-24T06:24:55.780Z,1019.93
2018-12-24T06:25:55.889Z,1020.00
2018-12-24T06:26:55.758Z,1020.00
2018-12-24T06:27:55.753Z,1020.00
2018-12-24T06:28:55.763Z,1020.04
2018-12-24T06:29:55.722Z,1020.07
2018-12-24T06:30:55.749Z,1020.02
2018-12-24T06:31:55.722Z,1020.02
2018-12-24T06:32:55.693Z,1020.10
2018-12-24T06:33:55.681Z,1020.13
2018-12-24T06:34:55.673Z,1020.14
2018-12-24T06:35:55.662Z,1020.14
2018-12-24T06:36:55.669Z,1020.23
2018-12-24T06:37:55.640Z,1020.28
2018-12-24T06:38:55.627Z,1020.34
2018-12-24T06:39:55.618Z,1020.38
2018-12-24T06:40:55.614Z,1020.34
2018-12-24T06:41:55.595Z,1020.45
2018-12-24T06:42:55.598Z,1020.47
2018-12-24T06:43:55.568Z,1020.48
2018-12-24T06:44:55.560Z,1020.49
2018-12-24T06:45:55.564Z,1020.50
2018-12-24T06:46:55.543Z,1020.48
2018-12-24T06:47:55.522Z,1020.48
2018-12-24T06:48:55.547Z,1020.51
2018-12-24T06:49:55.509Z,1020.50
2018-12-24T06:50:55.589Z,1020.54
2018-12-24T06:51:55.485Z,1020.57
2018-12-24T06:52:55.487Z,1020.59
2018-12-24T06:53:55.459Z,1020.56
2018-12-24T06:54:55.461Z,1020.57
2018-12-24T06:55:55.434Z,1020.59
2018-12-24T06:56:55.422Z,1020.53
2018-12-24T06:57:55.421Z,1020.58
2018-12-24T06:58:55.400Z,1020.59
2018-12-24T06:59:55.391Z,1020.61
2018-12-24T07:00:55.413Z,1020.60
2018-12-24T07:01:55.409Z,1020.64
2018-12-24T07:02:55.378Z,1020.66
2018-12-24T07:03:55.370Z,1020.68
2018-12-24T07:04:55.337Z,1020.65
2018-12-24T07:05:55.347Z,1020.70
2018-12-24T07:06:55.311Z,1020.72
2018-12-24T07:07:55.340Z,1020.73
2018-12-24T07:08:55.313Z,1020.82
2018-12-24T07:09:55.313Z,1020.82
2018-12-24T07:10:55.285Z,1020.85
2018-12-24T07:11:55.272Z,1020.84
2018-12-24T07:12:55.246Z,1020.87
2018-12-24T07:13:55.289Z,1020.85
2018-12-24T07:14:55.257Z,1020.84
2018-12-24T07:15:55.254Z,1020.83
2018-12-24T07:16:55.217Z,1020.84
2018-12-24T07:17:55.210Z,1020.88
2018-12-24T07:18:55.176Z,1020.86
2018-12-24T07:19:55.186Z,1020.90
2018-12-24T07:20:55.175Z,1020.89
2018-12-24T07:21:55.153Z,1020.87
2018-12-24T07:22:55.169Z,1020.91
2018-12-24T07:23:55.136Z,1020.94
2018-12-24T07:24:55.140Z,1020.98
2018-12-24T07:25:55.118Z,1020.91
2018-12-24T07:26:55.131Z,1020.96
2018-12-24T07:27:55.110Z,1020.90
2018-12-24T07:28:59.066Z,1020.90
2018-12-24T07:29:55.058Z,1020.87
2018-12-24T07:30:55.050Z,1020.86
2018-12-24T07:31:55.061Z,1020.90
2018-12-24T07:32:55.034Z,1020.93
2018-12-24T07:33:55.013Z,1020.92
2018-12-24T07:34:55.070Z,1020.95
2018-12-24T07:35:54.991Z,1020.94
2018-12-24T07:36:55.003Z,1021.01
2018-12-24T07:37:55.002Z,1021.01
2018-12-24T07:38:54.958Z,1021.06
2018-12-24T07:39:54.964Z,1021.13
2018-12-24T07:40:54.940Z,1021.15
2018-12-24T07:41:54.935Z,1021.20
2018-12-24T07:42:54.926Z,1021.23
2018-12-24T07:43:54.914Z,1021.26
2018-12-24T07:44:54.889Z,1021.30
2018-12-24T07:45:54.893Z,1021.29
2018-12-24T07:46:54.902Z,1021.31
2018-12-24T07:47:54.880Z,1021.32
2018-12-24T07:48:54.895Z,1021.34
2018-12-24T07:49:54.859Z,1021.40
2018-12-24T07:50:54.823Z,1021.38
2018-12-24T07:51:54.850Z,1021.42
2018-12-24T07:52:54.802Z,1021.40
2018-12-24T07:53:54.791Z,1021.48
2018-12-24T07:54:54.807Z,1021.51
2018-12-24T07:55:54.790Z,1021.51
2018-12-24T07:56:54.770Z,1021.52
2018-12-24T07:57:54.744Z,1021.51
2018-12-24T07:58:54.737Z,1021.50
2018-12-24T07:59:54.749Z,1021.53
2018-12-24T08:00:54.738Z,1021.57
2018-12-24T08:01:54.712Z,1021.52
2018-12-24T08:02:54.687Z,1021.63
2018-12-24T08:03:54.680Z,1021.64
2018-12-24T08:04:54.667Z,1021.67
2018-12-24T08:05:54.659Z,1021.67
2018-12-24T08:06:54.685Z,1021.68
2018-12-24T08:07:54.654Z,1021.65
2018-12-24T08:08:54.625Z,1021.70
2018-12-24T08:09:54.610Z,1021.69
2018-12-24T08:10:54.602Z,1021.73
2018-12-24T08:11:54.616Z,1021.76
2018-12-24T08:12:54.622Z,1021.79
2018-12-24T08:13:54.588Z,1021.84
2018-12-24T08:14:54.566Z,1021.96
2018-12-24T08:16:03.180Z,1021.93
2018-12-24T08:16:54.570Z,1021.98
2018-12-24T08:17:54.528Z,1022.07
2018-12-24T08:18:54.542Z,1022.08
2018-12-24T08:19:54.507Z,1022.11
2018-12-24T08:20:54.562Z,1022.14
2018-12-24T08:21:54.483Z,1022.15
2018-12-24T08:22:54.483Z,1022.24
2018-12-24T08:23:54.463Z,1022.25
2018-12-24T08:24:54.462Z,1022.35
2018-12-24T08:25:54.440Z,1022.43
2018-12-24T08:26:54.431Z,1022.55
2018-12-24T08:27:54.416Z,1022.57
2018-12-24T08:28:54.411Z,1022.63
2018-12-24T08:29:54.410Z,1022.64
2018-12-24T08:30:54.382Z,1022.71
2018-12-24T08:31:54.375Z,1022.83
2018-12-24T08:32:54.383Z,1022.79
2018-12-24T08:33:54.492Z,1022.84
2018-12-24T08:34:54.343Z,1022.88
2018-12-24T08:35:54.349Z,1022.96
2018-12-24T08:36:54.316Z,1023.10
2018-12-24T08:37:54.325Z,1023.13
2018-12-24T08:38:54.291Z,1023.12
2018-12-24T08:39:54.290Z,1023.12
2018-12-24T08:40:54.319Z,1023.05
2018-12-24T08:41:54.280Z,1023.08
2018-12-24T08:42:54.248Z,1023.07
2018-12-24T08:43:54.242Z,1023.19
2018-12-24T08:44:54.271Z,1023.14
2018-12-24T08:45:54.219Z,1023.26
2018-12-24T08:46:54.254Z,1023.32
2018-12-24T08:47:54.217Z,1023.41
2018-12-24T08:48:54.181Z,1023.33
2018-12-24T08:49:54.175Z,1023.30
2018-12-24T08:50:54.187Z,1023.35
2018-12-24T08:51:54.147Z,1023.38
2018-12-24T08:52:54.136Z,1023.37
2018-12-24T08:53:54.138Z,1023.26
2018-12-24T08:54:54.118Z,1023.30
2018-12-24T08:55:54.124Z,1023.39
2018-12-24T08:56:54.103Z,1023.50
2018-12-24T08:57:54.091Z,1023.45
2018-12-24T08:58:54.085Z,1023.40
2018-12-24T08:59:54.065Z,1023.49
2018-12-24T09:00:54.084Z,1023.61
2018-12-24T09:01:54.057Z,1023.68
2018-12-24T09:02:54.023Z,1023.67
2018-12-24T09:03:54.010Z,1023.68
2018-12-24T09:04:54.014Z,1023.73
2018-12-24T09:05:53.996Z,1023.67
2018-12-24T09:06:54.023Z,1023.51
2018-12-24T09:07:53.965Z,1023.56
2018-12-24T09:08:53.959Z,1023.66
2018-12-24T09:09:53.967Z,1023.78
2018-12-24T09:10:53.941Z,1023.79
2018-12-24T09:11:53.921Z,1023.68
2018-12-24T09:12:53.920Z,1023.58
2018-12-24T09:13:53.901Z,1023.56
2018-12-24T09:14:53.891Z,1023.63
2018-12-24T09:15:53.977Z,1023.74
2018-12-24T09:16:53.869Z,1023.75
2018-12-24T09:17:53.858Z,1023.83
2018-12-24T09:18:53.874Z,1023.86
2018-12-24T09:19:53.838Z,1023.79
2018-12-24T09:20:53.839Z,1023.81
2018-12-24T09:21:53.832Z,1023.76
2018-12-24T09:22:53.812Z,1023.79
2018-12-24T09:23:53.802Z,1023.89
2018-12-24T09:24:53.777Z,1023.95
2018-12-24T09:25:53.768Z,1023.95
2018-12-24T09:26:53.756Z,1023.90
2018-12-24T09:27:53.754Z,1024.01
2018-12-24T09:28:53.767Z,1024.18
2018-12-24T09:29:53.716Z,1024.18
2018-12-24T09:30:53.713Z,1024.08
2018-12-24T09:31:53.693Z,1023.96
2018-12-24T09:32:53.696Z,1024.00
2018-12-24T09:33:53.687Z,1024.06
2018-12-24T09:34:53.672Z,1024.05
2018-12-24T09:35:53.767Z,1024.07
2018-12-24T09:36:53.647Z,1024.11
2018-12-24T09:37:53.646Z,1024.16
2018-12-24T09:38:53.641Z,1024.14
2018-12-24T09:39:53.643Z,1024.17
2018-12-24T09:40:53.595Z,1024.12
2018-12-24T09:41:53.590Z,1024.13
2018-12-24T09:42:53.577Z,1024.18
2018-12-24T09:43:53.571Z,1024.18
2018-12-24T09:44:58.974Z,1024.18
2018-12-24T09:45:54.590Z,1024.18
2018-12-24T09:46:53.531Z,1024.18
2018-12-24T09:47:53.521Z,1024.17
2018-12-24T09:48:53.544Z,1024.23
2018-12-24T09:49:53.491Z,1024.19
2018-12-24T09:50:53.505Z,1024.25
2018-12-24T09:51:53.474Z,1024.26
2018-12-24T09:52:53.471Z,1024.29
2018-12-24T09:53:53.451Z,1024.29
2018-12-24T09:54:53.439Z,1024.32
2018-12-24T09:55:53.452Z,1024.31
2018-12-24T09:56:53.523Z,1024.27
2018-12-24T09:57:53.403Z,1024.36
2018-12-24T09:58:53.391Z,1024.37
2018-12-24T09:59:53.381Z,1024.36
2018-12-24T10:00:53.368Z,1024.34
2018-12-24T10:01:53.371Z,1024.38
2018-12-24T10:02:53.365Z,1024.47
2018-12-24T10:03:53.334Z,1024.46
2018-12-24T10:04:53.358Z,1024.49
2018-12-24T10:05:53.315Z,1024.51
2018-12-24T10:06:53.297Z,1024.49
2018-12-24T10:07:53.294Z,1024.46
2018-12-24T10:08:53.302Z,1024.46
2018-12-24T10:09:53.271Z,1024.52
2018-12-24T10:10:53.260Z,1024.52
2018-12-24T10:11:53.258Z,1024.52
2018-12-24T10:12:53.238Z,1024.54
2018-12-24T10:13:53.279Z,1024.56
2018-12-24T10:14:53.234Z,1024.58
2018-12-24T10:15:53.202Z,1024.55
2018-12-24T10:16:53.189Z,1024.53
2018-12-24T10:17:53.185Z,1024.52
2018-12-24T10:18:53.172Z,1024.49
2018-12-24T10:19:53.160Z,1024.48
2018-12-24T10:20:53.181Z,1024.48
2018-12-24T10:21:53.138Z,1024.54
2018-12-24T10:22:53.125Z,1024.54
2018-12-24T10:23:53.120Z,1024.52
2018-12-24T10:24:53.158Z,1024.54
2018-12-24T10:25:53.091Z,1024.56
2018-12-24T10:26:53.096Z,1024.57
2018-12-24T10:27:53.072Z,1024.57
2018-12-24T10:28:53.055Z,1024.59
2018-12-24T10:29:53.047Z,1024.58
2018-12-24T10:30:53.111Z,1024.58
2018-12-24T10:31:53.023Z,1024.51
2018-12-24T10:32:53.006Z,1024.53
2018-12-24T10:33:53.026Z,1024.49
2018-12-24T10:34:52.993Z,1024.52
2018-12-24T10:35:52.994Z,1024.52
2018-12-24T10:36:52.967Z,1024.51
2018-12-24T10:37:52.953Z,1024.48
2018-12-24T10:38:52.945Z,1024.48
2018-12-24T10:39:52.974Z,1024.48
2018-12-24T10:40:52.918Z,1024.50
2018-12-24T10:41:52.935Z,1024.50
2018-12-24T10:42:52.899Z,1024.48
2018-12-24T10:43:52.889Z,1024.47
2018-12-24T10:44:52.930Z,1024.48
2018-12-24T10:45:52.863Z,1024.43
2018-12-24T10:46:52.853Z,1024.44
2018-12-24T10:47:52.960Z,1024.45
2018-12-24T10:48:52.839Z,1024.47
2018-12-24T10:49:52.824Z,1024.42
2018-12-24T10:50:52.825Z,1024.48
2018-12-24T10:51:52.803Z,1024.44
2018-12-24T10:52:52.845Z,1024.42
2018-12-24T10:53:52.780Z,1024.47
2018-12-24T10:54:52.771Z,1024.52
2018-12-24T10:55:52.779Z,1024.48
2018-12-24T10:56:52.824Z,1024.49
2018-12-24T10:57:52.733Z,1024.46
2018-12-24T10:58:52.724Z,1024.49
2018-12-24T10:59:52.708Z,1024.45
2018-12-24T11:00:52.715Z,1024.49
2018-12-24T11:01:52.700Z,1024.48
2018-12-24T11:02:52.696Z,1024.44
2018-12-24T11:03:52.659Z,1024.46
2018-12-24T11:04:52.678Z,1024.48
2018-12-24T11:05:52.640Z,1024.49
2018-12-24T11:06:52.628Z,1024.48
2018-12-24T11:07:52.664Z,1024.49
2018-12-24T11:08:52.623Z,1024.55
2018-12-24T11:09:52.599Z,1024.60
2018-12-24T11:10:52.583Z,1024.59
2018-12-24T11:11:52.575Z,1024.60
2018-12-24T11:12:52.586Z,1024.60
2018-12-24T11:13:52.551Z,1024.65
2018-12-24T11:14:52.562Z,1024.68
2018-12-24T11:15:52.533Z,1024.67
2018-12-24T11:16:52.537Z,1024.68
2018-12-24T11:17:52.519Z,1024.67
2018-12-24T11:18:52.495Z,1024.67
2018-12-24T11:19:53.764Z,1024.71
2018-12-24T11:20:52.503Z,1024.75
2018-12-24T11:21:52.480Z,1024.77
2018-12-24T11:22:52.562Z,1024.77
2018-12-24T11:23:52.435Z,1024.75
2018-12-24T11:24:52.435Z,1024.69
2018-12-24T11:25:52.434Z,1024.70
2018-12-24T11:26:52.405Z,1024.73
2018-12-24T11:27:52.462Z,1024.77
2018-12-24T11:28:52.384Z,1024.76
2018-12-24T11:29:52.367Z,1024.78
2018-12-24T11:30:52.366Z,1024.74
2018-12-24T11:31:52.399Z,1024.73
2018-12-24T11:32:52.347Z,1024.73
2018-12-24T11:33:52.345Z,1024.78
2018-12-24T11:34:52.313Z,1024.79
2018-12-24T11:35:52.317Z,1024.78
2018-12-24T11:36:52.289Z,1024.76
2018-12-24T11:37:52.285Z,1024.78
2018-12-24T11:38:52.321Z,1024.78
2018-12-24T11:39:52.257Z,1024.82
2018-12-24T11:40:52.247Z,1024.82
2018-12-24T11:41:52.267Z,1024.91
2018-12-24T11:42:52.273Z,1024.86
2018-12-24T11:43:52.233Z,1024.87
2018-12-24T11:44:52.207Z,1024.86
2018-12-24T11:45:52.228Z,1024.85
2018-12-24T11:46:52.206Z,1024.90
2018-12-24T11:47:52.172Z,1024.91
2018-12-24T11:48:52.178Z,1024.92
2018-12-24T11:49:52.170Z,1024.94
2018-12-24T11:50:52.142Z,1024.98
2018-12-24T11:51:52.126Z,1025.00
2018-12-24T11:52:52.131Z,1024.99
2018-12-24T11:53:52.117Z,1024.99
2018-12-24T11:54:52.095Z,1025.01
2018-12-24T11:55:52.089Z,1025.08
2018-12-24T11:56:52.102Z,1025.12
2018-12-24T11:57:52.080Z,1025.12
2018-12-24T11:58:52.041Z,1025.06
2018-12-24T11:59:52.090Z,1025.05
2018-12-24T12:00:52.022Z,1025.06
2018-12-24T12:01:52.012Z,1025.01
2018-12-24T12:02:51.998Z,1025.06
2018-12-24T12:03:52.002Z,1025.06
2018-12-24T12:04:51.977Z,1025.10